CheckWX is a tool to help pilots better visualize weather data.  It is not intended as a substitute for an official pre-flight weather briefing.

16:56:07 UTC

OLBA TAF
Beirut Rafic Hariri International Airport
Beirut, Lebanon
TAF AMD OLBA 181359Z 1813/1918 23018KT 8000 SCT026 PROB40 TEMPO 1815/1822 -RA BKN026 PROB30 TEMPO 1815/1820 22015G25KT -TSRA FEW020CB SCT025 BECMG 1818/1821 17006KT BKN025 BECMG 1906/1908 24014KT

Jun-18@
13:00 UTC

Jun-18 @ 13:00 UTC

Jun-18@
18:00 UTC

Jun-18 @ 18:00 UTC

TAF AMD OLBA 181359Z 1813/1918 23018KT 8000 SCT026
Wind
  • 230° at 18 KTS
Cloud Levels
  • Scattered at 2,600' AGL

Jun-18@
15:00 UTC

Jun-18 @ 15:00 UTC

Jun-18@
20:00 UTC

Jun-18 @ 20:00 UTC

PROB30 TEMPO 1815/1820 22015G25KT -TSRA FEW020CB SCT025

Temporary - 30% Likelihood

Temporary - 30% Likelihood during this time.

Wind
  • 220° at 15 KTS
  • {Gusting to 25 KTS
Conditions
Light Thunderstorm, Light Rain
Cloud Levels
  • Few at 2,000' AGL
  • Scattered at 2,500' AGL

Jun-18@
15:00 UTC

Jun-18 @ 15:00 UTC

Jun-18@
22:00 UTC

Jun-18 @ 22:00 UTC

PROB40 TEMPO 1815/1822 -RA BKN026

Temporary - 40% Likelihood

Temporary - 40% Likelihood during this time.

Conditions
Light Rain
Cloud Levels
  • Broken at 2,600' AGL

Jun-18@
18:00 UTC

Jun-18 @ 18:00 UTC

Jun-19@
06:00 UTC

Jun-19 @ 06:00 UTC

BECMG 1818/1821 17006KT BKN025

Becoming

Becoming Conditions expected by Tue, Jun 18, 2019 @ 21:00 UTC

Wind
  • 170° at 6 KTS
Cloud Levels
  • Broken at 2,500' AGL

Jun-19@
06:00 UTC

Jun-19 @ 06:00 UTC

Jun-19@
18:00 UTC

Jun-19 @ 18:00 UTC

BECMG 1906/1908 24014KT

Becoming

Becoming Conditions expected by Wed, Jun 19, 2019 @ 08:00 UTC

Wind
  • 240° at 14 KTS
Cloud Levels
  • Broken at 2,500' AGL